Time;durP1;ratioP1;P1;durP2;ratioP2;P2;SDS_P1;SDS_P2;PMS_P1;PMS_P2;Temp;Humidity;BMP_temperature;BMP_pressure;BME280_temperature;BME280_humidity;BME280_pressure;Samples;Min_cycle;Max_cycle;Signal;HPM_P1;HPM_P2
2023/05/24 00:00:11;;;;;;;;;;;10.60;68.00;;;;;;5075830;28;19912;-28
2023/05/24 00:02:43;;;;;;;;;;;10.60;68.10;;;;;;5093954;28;20001;-28
2023/05/24 00:05:09;;;;;;;;;;;10.60;68.10;;;;;;5093831;28;19972;-29
2023/05/24 00:07:35;;;;;;;;;;;10.60;68.20;;;;;;5093878;28;19987;-28
2023/05/24 00:10:02;;;;;;;;;;;10.60;68.30;;;;;;5093836;28;19916;-29
2023/05/24 00:12:27;;;;;;;;;;;10.50;68.40;;;;;;5094047;28;20000;-33
2023/05/24 00:14:52;;;;;;;;;;;10.50;68.50;;;;;;5093762;28;19940;-30
2023/05/24 00:17:18;;;;;;;;;;;10.50;68.60;;;;;;5093748;28;19908;-30
2023/05/24 00:19:44;;;;;;;;;;;10.60;68.60;;;;;;5093812;28;20455;-33
2023/05/24 00:22:10;;;;;;;;;;;10.50;68.60;;;;;;5093448;28;20311;-29
2023/05/24 00:24:36;;;;;;;;;;;10.50;68.70;;;;;;5093470;28;19919;-31
2023/05/24 00:27:01;;;;;;;;;;;10.50;68.80;;;;;;5093627;28;19909;-29
2023/05/24 00:29:27;;;;;;;;;;;10.40;68.80;;;;;;5093620;28;19908;-29
2023/05/24 00:31:52;;;;;;;;;;;10.40;68.90;;;;;;5093450;28;19908;-31
2023/05/24 00:34:18;;;;;;;;;;;10.40;69.00;;;;;;5093445;28;19957;-34
2023/05/24 00:36:43;;;;;;;;;;;10.50;69.10;;;;;;5075256;28;19908;-31
2023/05/24 00:39:09;;;;;;;;;;;10.40;69.10;;;;;;5093307;28;20006;-29
2023/05/24 00:41:34;;;;;;;;;;;10.40;69.20;;;;;;5093438;28;20359;-30
2023/05/24 00:44:00;;;;;;;;;;;10.30;69.20;;;;;;5074387;28;20416;-39
2023/05/24 00:46:29;;;;;;;;;;;10.30;69.30;;;;;;5093285;28;19912;-29
2023/05/24 00:48:55;;;;;;;;;;;10.30;69.50;;;;;;5093132;28;20406;-32
2023/05/24 00:51:21;;;;;;;;;;;10.30;69.50;;;;;;5093113;28;20413;-30
2023/05/24 00:53:47;;;;;;;;;;;10.30;69.50;;;;;;5074853;28;19908;-33
2023/05/24 00:56:13;;;;;;;;;;;10.30;69.70;;;;;;5092993;28;20363;-31
2023/05/24 00:58:39;;;;;;;;;;;10.30;69.70;;;;;;5093016;28;20004;-30
2023/05/24 01:01:05;;;;;;;;;;;10.20;69.80;;;;;;5092919;28;20421;-31
2023/05/24 01:03:30;;;;;;;;;;;10.20;69.90;;;;;;5092881;28;19994;-29
2023/05/24 01:06:02;;;;;;;;;;;10.20;70.00;;;;;;5092717;28;19972;-29
2023/05/24 01:08:46;;;;;;;;;;;10.20;70.00;;;;;;5092810;28;19931;-30
2023/05/24 01:11:15;;;;;;;;;;;10.20;70.10;;;;;;5092613;28;19958;-29
2023/05/24 01:13:46;;;;;;;;;;;10.20;70.20;;;;;;5092756;28;20368;-31
2023/05/24 01:16:18;;;;;;;;;;;10.10;70.30;;;;;;5092733;28;20363;-34
2023/05/24 01:18:46;;;;;;;;;;;10.10;70.50;;;;;;5092844;28;19908;-33
2023/05/24 01:21:12;;;;;;;;;;;10.00;70.60;;;;;;5092590;28;20004;-31
2023/05/24 01:23:41;;;;;;;;;;;9.90;71.40;;;;;;5092453;28;19912;-29
2023/05/24 01:26:12;;;;;;;;;;;9.90;70.80;;;;;;5092478;28;19919;-30
2023/05/24 01:28:38;;;;;;;;;;;9.90;71.00;;;;;;5092328;28;19908;-29
2023/05/24 01:31:03;;;;;;;;;;;9.90;71.00;;;;;;5092400;28;19940;-31
2023/05/24 01:33:29;;;;;;;;;;;9.90;70.90;;;;;;5092372;28;19912;-33
2023/05/24 01:35:54;;;;;;;;;;;9.90;70.90;;;;;;5092417;28;19915;-36
2023/05/24 01:38:20;;;;;;;;;;;9.90;71.00;;;;;;5092323;28;20367;-32
2023/05/24 01:40:48;;;;;;;;;;;9.90;71.00;;;;;;5092237;28;19908;-33
2023/05/24 01:43:42;;;;;;;;;;;9.90;71.10;;;;;;5092220;28;20003;-29
2023/05/24 01:46:26;;;;;;;;;;;9.90;71.20;;;;;;5070325;28;19912;-31
2023/05/24 01:48:57;;;;;;;;;;;9.90;71.20;;;;;;5092107;28;20268;-35
2023/05/24 01:51:23;;;;;;;;;;;9.90;71.30;;;;;;5092210;28;19911;-29
2023/05/24 01:53:49;;;;;;;;;;;9.80;71.30;;;;;;5073976;28;19962;-30
2023/05/24 01:56:15;;;;;;;;;;;9.80;71.40;;;;;;5091130;28;19962;-30
2023/05/24 01:58:42;;;;;;;;;;;9.80;71.60;;;;;;5091989;28;19958;-30
2023/05/24 02:01:08;;;;;;;;;;;9.70;71.70;;;;;;5091870;28;19909;-30
2023/05/24 02:03:33;;;;;;;;;;;9.80;71.80;;;;;;5092200;28;20344;-30
2023/05/24 02:06:00;;;;;;;;;;;9.70;71.90;;;;;;5091875;28;19912;-34
2023/05/24 02:08:26;;;;;;;;;;;9.70;72.60;;;;;;5091949;28;19998;-33
2023/05/24 02:10:51;;;;;;;;;;;9.70;72.00;;;;;;5091792;28;20332;-30
2023/05/24 02:13:18;;;;;;;;;;;9.70;72.00;;;;;;5073615;28;19908;-33
2023/05/24 02:15:44;;;;;;;;;;;9.60;72.10;;;;;;5091879;28;20383;-30
2023/05/24 02:18:10;;;;;;;;;;;9.60;72.80;;;;;;5091827;28;19908;-40
2023/05/24 02:20:35;;;;;;;;;;;9.50;72.30;;;;;;5091904;28;20007;-32
2023/05/24 02:23:01;;;;;;;;;;;9.50;72.30;;;;;;5091680;28;20012;-30
2023/05/24 02:25:28;;;;;;;;;;;9.50;72.40;;;;;;5091659;28;19918;-40
2023/05/24 02:27:53;;;;;;;;;;;9.40;72.60;;;;;;5091972;28;19908;-31
2023/05/24 02:30:19;;;;;;;;;;;9.40;72.80;;;;;;5091542;28;19908;-38
2023/05/24 02:32:45;;;;;;;;;;;9.40;73.00;;;;;;5091998;28;20003;-47
2023/05/24 02:35:10;;;;;;;;;;;9.40;73.00;;;;;;5092001;28;19919;-32
2023/05/24 02:37:36;;;;;;;;;;;9.40;73.10;;;;;;5091590;28;20410;-44
2023/05/24 02:40:02;;;;;;;;;;;9.30;73.00;;;;;;5091193;28;19982;-53
2023/05/24 02:42:28;;;;;;;;;;;9.20;73.10;;;;;;5073004;28;20287;-46
2023/05/24 02:44:53;;;;;;;;;;;9.20;73.30;;;;;;5072846;28;19912;-50
2023/05/24 02:47:19;;;;;;;;;;;9.20;73.50;;;;;;5072805;28;19951;-53
2023/05/24 02:49:44;;;;;;;;;;;9.30;73.60;;;;;;5091187;28;19908;-45
2023/05/24 02:52:10;;;;;;;;;;;9.40;73.70;;;;;;5091263;28;20375;-34
2023/05/24 02:54:35;;;;;;;;;;;9.40;73.60;;;;;;5091169;28;19924;-39
2023/05/24 02:57:01;;;;;;;;;;;9.50;73.70;;;;;;5091071;28;19908;-38
2023/05/24 02:59:27;;;;;;;;;;;9.50;73.60;;;;;;5091199;28;19908;-39
2023/05/24 03:01:52;;;;;;;;;;;9.50;73.60;;;;;;5091183;28;20379;-31
2023/05/24 03:04:18;;;;;;;;;;;9.50;73.60;;;;;;5091399;28;19955;-35
2023/05/24 03:06:43;;;;;;;;;;;9.50;73.70;;;;;;5092421;28;19912;-32
2023/05/24 03:09:09;;;;;;;;;;;9.60;73.70;;;;;;5095009;28;20360;-37
2023/05/24 03:11:34;;;;;;;;;;;9.60;73.80;;;;;;5095164;28;19999;-33
2023/05/24 03:14:00;;;;;;;;;;;9.60;73.80;;;;;;5094928;28;20383;-32
2023/05/24 03:16:25;;;;;;;;;;;9.60;73.80;;;;;;5095039;28;19908;-34
2023/05/24 03:18:54;;;;;;;;;;;9.60;73.80;;;;;;5094941;28;20279;-33
2023/05/24 03:21:20;;;;;;;;;;;9.60;73.80;;;;;;5094741;28;20355;-40
2023/05/24 03:23:45;;;;;;;;;;;9.60;73.80;;;;;;5094916;28;19908;-32
2023/05/24 03:26:12;;;;;;;;;;;9.60;73.80;;;;;;5076461;28;20427;-32
2023/05/24 03:28:37;;;;;;;;;;;9.60;74.40;;;;;;5094841;28;19908;-31
2023/05/24 03:31:03;;;;;;;;;;;9.60;73.80;;;;;;5094582;28;19915;-31
2023/05/24 03:33:28;;;;;;;;;;;9.60;73.80;;;;;;5094725;28;19908;-29
2023/05/24 03:35:54;;;;;;;;;;;9.60;73.90;;;;;;5094583;28;20017;-31
2023/05/24 03:38:19;;;;;;;;;;;9.70;74.00;;;;;;5094545;28;19908;-31
2023/05/24 03:40:45;;;;;;;;;;;9.70;74.00;;;;;;5094871;28;19915;-30
2023/05/24 03:43:11;;;;;;;;;;;9.70;74.00;;;;;;5094673;28;19919;-30
2023/05/24 03:45:36;;;;;;;;;;;9.70;74.10;;;;;;5094354;28;19912;-32
2023/05/24 03:48:02;;;;;;;;;;;9.70;74.10;;;;;;5094338;28;19908;-33
2023/05/24 03:50:27;;;;;;;;;;;9.60;74.20;;;;;;5076163;28;19909;-30
2023/05/24 03:52:53;;;;;;;;;;;9.60;74.30;;;;;;5076117;28;19961;-34
2023/05/24 03:55:18;;;;;;;;;;;9.70;74.40;;;;;;5094126;28;19977;-31
2023/05/24 03:57:44;;;;;;;;;;;9.70;74.50;;;;;;5094261;28;19915;-30
2023/05/24 04:00:09;;;;;;;;;;;9.60;74.60;;;;;;5075927;28;19915;-30
2023/05/24 04:02:36;;;;;;;;;;;9.70;74.70;;;;;;5094195;28;19908;-31
2023/05/24 04:05:03;;;;;;;;;;;9.70;74.90;;;;;;5094239;28;19919;-31
2023/05/24 04:07:28;;;;;;;;;;;9.70;74.90;;;;;;5094018;28;20371;-30
2023/05/24 04:09:54;;;;;;;;;;;9.70;74.90;;;;;;5093912;28;20049;-30
2023/05/24 04:12:19;;;;;;;;;;;9.70;75.00;;;;;;5093840;28;19909;-30
2023/05/24 04:14:45;;;;;;;;;;;9.70;75.10;;;;;;5093897;28;19908;-29
2023/05/24 04:17:11;;;;;;;;;;;9.70;75.20;;;;;;5093739;28;19919;-38
2023/05/24 04:19:36;;;;;;;;;;;9.70;75.20;;;;;;5092874;28;20394;-30
2023/05/24 04:22:02;;;;;;;;;;;9.60;75.20;;;;;;5093595;28;19928;-29
2023/05/24 04:24:27;;;;;;;;;;;9.70;75.30;;;;;;5093709;28;20292;-33
2023/05/24 04:26:53;;;;;;;;;;;9.70;75.40;;;;;;5093822;28;19951;-32
2023/05/24 04:29:19;;;;;;;;;;;9.60;75.40;;;;;;5093703;28;19908;-32
2023/05/24 04:31:44;;;;;;;;;;;9.60;75.50;;;;;;5093480;28;19953;-29
2023/05/24 04:34:12;;;;;;;;;;;9.60;75.60;;;;;;5093541;28;19912;-31
2023/05/24 04:36:37;;;;;;;;;;;9.50;76.00;;;;;;5093523;28;19932;-31
2023/05/24 04:39:03;;;;;;;;;;;9.50;76.10;;;;;;5093366;28;19908;-31
2023/05/24 04:41:34;;;;;;;;;;;9.50;76.30;;;;;;5093430;28;20364;-30
2023/05/24 04:44:00;;;;;;;;;;;9.50;76.60;;;;;;5093335;28;19948;-29
2023/05/24 04:46:26;;;;;;;;;;;9.50;76.70;;;;;;5093892;28;20429;-29
2023/05/24 04:48:51;;;;;;;;;;;9.50;76.60;;;;;;5093180;28;19908;-31
2023/05/24 04:51:17;;;;;;;;;;;9.50;76.40;;;;;;5093441;28;19908;-33
2023/05/24 04:53:42;;;;;;;;;;;9.60;76.50;;;;;;5092993;28;19915;-32
2023/05/24 04:56:08;;;;;;;;;;;9.70;76.50;;;;;;5093198;28;19915;-30
2023/05/24 04:58:33;;;;;;;;;;;9.80;76.50;;;;;;5093033;28;19916;-30
2023/05/24 05:01:00;;;;;;;;;;;9.90;76.50;;;;;;5092965;28;19931;-37
2023/05/24 05:03:25;;;;;;;;;;;10.00;76.80;;;;;;5093074;28;19908;-29
2023/05/24 05:05:51;;;;;;;;;;;10.00;76.30;;;;;;5092781;28;19923;-29
2023/05/24 05:08:16;;;;;;;;;;;10.10;76.30;;;;;;5093298;28;20302;-30
2023/05/24 05:10:42;;;;;;;;;;;10.10;76.50;;;;;;5092713;28;19915;-32
2023/05/24 05:13:07;;;;;;;;;;;10.10;76.40;;;;;;5092870;28;20014;-29
2023/05/24 05:15:33;;;;;;;;;;;10.10;76.40;;;;;;5092740;28;20356;-33
2023/05/24 05:17:59;;;;;;;;;;;10.20;76.40;;;;;;5092760;28;20014;-33
2023/05/24 05:20:24;;;;;;;;;;;10.20;76.40;;;;;;5092788;28;19912;-30
2023/05/24 05:22:50;;;;;;;;;;;10.30;76.40;;;;;;5092547;28;20392;-30
2023/05/24 05:25:15;;;;;;;;;;;10.30;76.30;;;;;;5092532;28;19918;-31
2023/05/24 05:27:41;;;;;;;;;;;10.40;76.30;;;;;;5092574;28;19917;-31
2023/05/24 05:30:07;;;;;;;;;;;10.50;76.20;;;;;;5092218;28;19916;-30
2023/05/24 05:32:33;;;;;;;;;;;10.50;76.20;;;;;;5092499;28;19908;-30
2023/05/24 05:34:58;;;;;;;;;;;10.60;76.10;;;;;;5092476;28;20272;-33
2023/05/24 05:37:24;;;;;;;;;;;10.60;76.30;;;;;;5092367;28;19908;-36
2023/05/24 05:39:49;;;;;;;;;;;10.80;76.20;;;;;;5092558;28;20288;-38
2023/05/24 05:42:15;;;;;;;;;;;10.90;76.10;;;;;;5092294;28;19908;-29
2023/05/24 05:44:40;;;;;;;;;;;11.00;75.90;;;;;;5092239;28;20306;-31
2023/05/24 05:47:08;;;;;;;;;;;11.00;76.10;;;;;;5092611;28;19912;-30
2023/05/24 05:49:35;;;;;;;;;;;11.10;76.10;;;;;;5092294;28;19947;-33
2023/05/24 05:52:04;;;;;;;;;;;11.20;75.80;;;;;;5092119;28;19912;-33
2023/05/24 05:54:30;;;;;;;;;;;11.30;75.50;;;;;;5092075;28;19995;-35
2023/05/24 05:56:55;;;;;;;;;;;11.30;75.40;;;;;;5092258;28;19935;-32
2023/05/24 05:59:21;;;;;;;;;;;11.40;75.40;;;;;;5091859;28;19915;-37
2023/05/24 06:01:47;;;;;;;;;;;11.50;75.50;;;;;;5092032;28;19959;-30
2023/05/24 06:04:14;;;;;;;;;;;11.50;75.50;;;;;;5092035;28;20264;-30
2023/05/24 06:06:39;;;;;;;;;;;11.50;75.40;;;;;;5091915;28;19959;-30
2023/05/24 06:09:05;;;;;;;;;;;11.60;75.60;;;;;;5091860;28;20359;-31
2023/05/24 06:11:30;;;;;;;;;;;11.60;75.70;;;;;;5073771;28;19919;-31
2023/05/24 06:13:56;;;;;;;;;;;11.60;75.50;;;;;;5091945;28;19915;-31
2023/05/24 06:16:21;;;;;;;;;;;11.60;75.60;;;;;;5091825;28;19912;-29
2023/05/24 06:18:47;;;;;;;;;;;11.60;75.40;;;;;;5091993;28;19961;-34
2023/05/24 06:21:15;;;;;;;;;;;11.60;75.50;;;;;;5091778;28;19995;-29
2023/05/24 06:23:41;;;;;;;;;;;11.60;75.50;;;;;;5091802;28;19919;-33
2023/05/24 06:26:10;;;;;;;;;;;11.50;75.70;;;;;;5091844;28;20368;-32
2023/05/24 06:28:35;;;;;;;;;;;11.50;75.80;;;;;;5091825;28;20371;-38
2023/05/24 06:31:02;;;;;;;;;;;11.50;75.90;;;;;;5091813;28;19908;-33
2023/05/24 06:33:27;;;;;;;;;;;11.50;75.90;;;;;;5091828;28;20280;-30
2023/05/24 06:35:53;;;;;;;;;;;11.60;75.60;;;;;;5091710;28;19908;-30
2023/05/24 06:38:18;;;;;;;;;;;11.70;75.50;;;;;;5091869;28;19912;-30
2023/05/24 06:40:44;;;;;;;;;;;11.80;75.60;;;;;;5091666;28;19908;-32
2023/05/24 06:43:09;;;;;;;;;;;11.90;75.40;;;;;;5095120;28;20383;-31
2023/05/24 06:45:36;;;;;;;;;;;12.00;75.30;;;;;;5095647;28;20006;-32
2023/05/24 06:48:01;;;;;;;;;;;12.10;75.00;;;;;;5095485;28;19995;-32
2023/05/24 06:50:27;;;;;;;;;;;12.30;74.80;;;;;;5095639;28;19950;-34
2023/05/24 06:52:52;;;;;;;;;;;12.50;74.60;;;;;;5095451;28;19908;-30
2023/05/24 06:55:18;;;;;;;;;;;12.60;74.20;;;;;;5095499;28;19999;-38
2023/05/24 06:57:44;;;;;;;;;;;12.60;73.90;;;;;;5095446;28;19962;-31
2023/05/24 07:00:11;;;;;;;;;;;12.70;73.90;;;;;;5095363;28;19909;-38
2023/05/24 07:02:37;;;;;;;;;;;12.60;73.80;;;;;;5095377;28;19909;-30
2023/05/24 07:05:03;;;;;;;;;;;12.60;73.80;;;;;;5095057;28;19912;-30
2023/05/24 07:07:28;;;;;;;;;;;12.70;74.00;;;;;;5095329;28;20328;-28
2023/05/24 07:09:54;;;;;;;;;;;12.70;73.80;;;;;;5094975;28;20272;-29
2023/05/24 07:12:19;;;;;;;;;;;12.70;73.80;;;;;;5095033;28;19908;-35
2023/05/24 07:14:45;;;;;;;;;;;12.70;73.80;;;;;;5095437;28;19946;-34
2023/05/24 07:17:11;;;;;;;;;;;12.80;73.70;;;;;;5094879;28;19948;-30
2023/05/24 07:19:36;;;;;;;;;;;12.80;73.60;;;;;;5095135;28;19993;-32
2023/05/24 07:22:02;;;;;;;;;;;12.90;73.60;;;;;;5094679;28;20360;-33
2023/05/24 07:24:28;;;;;;;;;;;13.00;73.50;;;;;;5095069;28;19912;-31
2023/05/24 07:26:55;;;;;;;;;;;13.10;73.40;;;;;;5076591;28;20283;-32
2023/05/24 07:29:20;;;;;;;;;;;13.10;73.20;;;;;;5095225;28;19916;-32
2023/05/24 07:31:47;;;;;;;;;;;13.30;73.10;;;;;;5095126;28;19912;-33
2023/05/24 07:34:12;;;;;;;;;;;13.30;72.80;;;;;;5094730;28;19912;-32
2023/05/24 07:36:39;;;;;;;;;;;13.30;72.70;;;;;;5094889;28;19912;-30
2023/05/24 07:39:05;;;;;;;;;;;13.30;72.60;;;;;;5094746;28;20046;-35
2023/05/24 07:41:32;;;;;;;;;;;13.30;72.70;;;;;;5094771;28;19957;-33
2023/05/24 07:43:57;;;;;;;;;;;13.40;72.70;;;;;;5094780;28;19916;-32
2023/05/24 07:46:23;;;;;;;;;;;13.50;72.40;;;;;;5094376;28;19923;-31
2023/05/24 07:48:48;;;;;;;;;;;13.60;72.00;;;;;;5094645;28;20011;-32
2023/05/24 07:51:14;;;;;;;;;;;13.70;71.50;;;;;;5094402;28;20349;-35
2023/05/24 07:53:39;;;;;;;;;;;13.80;71.20;;;;;;5076140;28;19919;-36
2023/05/24 07:56:06;;;;;;;;;;;13.90;71.00;;;;;;5094379;28;19935;-33
2023/05/24 07:58:32;;;;;;;;;;;14.00;70.30;;;;;;5094447;28;19966;-35
2023/05/24 08:00:57;;;;;;;;;;;14.20;70.40;;;;;;5094602;28;19947;-37
2023/05/24 08:03:24;;;;;;;;;;;14.40;70.00;;;;;;5075996;28;19959;-36
2023/05/24 08:05:50;;;;;;;;;;;14.60;69.50;;;;;;5094113;28;19916;-32
2023/05/24 08:08:15;;;;;;;;;;;14.60;69.20;;;;;;5094185;28;19912;-33
2023/05/24 08:10:41;;;;;;;;;;;14.70;68.70;;;;;;5094014;28;20007;-35
2023/05/24 08:13:06;;;;;;;;;;;14.70;67.70;;;;;;5094395;28;19912;-35
2023/05/24 08:15:32;;;;;;;;;;;14.60;67.90;;;;;;5094046;28;19912;-33
2023/05/24 08:17:57;;;;;;;;;;;14.60;68.40;;;;;;5075195;28;19912;-30
2023/05/24 08:20:23;;;;;;;;;;;14.80;68.20;;;;;;5093914;28;19919;-31
2023/05/24 08:22:48;;;;;;;;;;;14.80;68.00;;;;;;5075520;28;19927;-31
2023/05/24 08:25:14;;;;;;;;;;;14.80;66.90;;;;;;5094066;28;19916;-34
2023/05/24 08:27:40;;;;;;;;;;;14.80;66.80;;;;;;5075414;28;20368;-33
2023/05/24 08:30:07;;;;;;;;;;;14.70;67.00;;;;;;5094107;28;19912;-32
2023/05/24 08:32:32;;;;;;;;;;;14.60;66.70;;;;;;5093499;28;19912;-31
2023/05/24 08:34:58;;;;;;;;;;;14.60;67.00;;;;;;5093559;28;20288;-33
2023/05/24 08:37:24;;;;;;;;;;;14.50;67.10;;;;;;5093514;28;19912;-31
2023/05/24 08:39:49;;;;;;;;;;;14.50;67.40;;;;;;5093563;28;19912;-33
2023/05/24 08:42:15;;;;;;;;;;;14.60;67.30;;;;;;5093773;28;19978;-30
2023/05/24 08:44:46;;;;;;;;;;;14.70;67.20;;;;;;5093405;28;19962;-35
2023/05/24 08:47:12;;;;;;;;;;;14.80;67.10;;;;;;5093398;28;19934;-32
2023/05/24 08:49:39;;;;;;;;;;;15.00;67.00;;;;;;5093449;28;19977;-30
2023/05/24 08:52:06;;;;;;;;;;;15.10;66.30;;;;;;5093281;28;20275;-32
2023/05/24 08:54:34;;;;;;;;;;;15.10;66.10;;;;;;5093339;28;19919;-32
2023/05/24 08:56:59;;;;;;;;;;;15.10;66.20;;;;;;5093162;28;19912;-32
2023/05/24 08:59:25;;;;;;;;;;;15.10;66.10;;;;;;5093184;28;19919;-30
2023/05/24 09:01:52;;;;;;;;;;;15.10;65.70;;;;;;5093080;28;19916;-30
2023/05/24 09:04:19;;;;;;;;;;;15.10;65.50;;;;;;5092899;28;20179;-31
2023/05/24 09:06:44;;;;;;;;;;;15.10;65.10;;;;;;5092991;28;20421;-32
2023/05/24 09:09:10;;;;;;;;;;;15.20;64.90;;;;;;5092904;28;19912;-31
2023/05/24 09:11:36;;;;;;;;;;;15.30;64.90;;;;;;5074801;28;19919;-32
2023/05/24 09:14:01;;;;;;;;;;;15.30;64.90;;;;;;5092828;28;20376;-34
2023/05/24 09:16:27;;;;;;;;;;;15.40;64.70;;;;;;5092951;28;19912;-33
2023/05/24 09:18:53;;;;;;;;;;;15.50;64.70;;;;;;5093059;28;19919;-37
2023/05/24 09:21:18;;;;;;;;;;;15.50;64.00;;;;;;5092765;28;19943;-31
2023/05/24 09:23:44;;;;;;;;;;;15.60;62.20;;;;;;5092717;28;20010;-29
2023/05/24 09:26:10;;;;;;;;;;;15.50;62.90;;;;;;5092545;28;19923;-32
2023/05/24 09:28:36;;;;;;;;;;;15.50;63.20;;;;;;5092934;28;19912;-33
2023/05/24 09:31:02;;;;;;;;;;;15.50;63.30;;;;;;5092489;28;19946;-40
2023/05/24 09:33:28;;;;;;;;;;;15.60;64.10;;;;;;5074349;28;19918;-31
2023/05/24 09:36:02;;;;;;;;;;;15.60;63.30;;;;;;5092437;28;19912;-34
2023/05/24 09:38:28;;;;;;;;;;;15.60;63.10;;;;;;5092569;28;19935;-31
2023/05/24 09:41:12;;;;;;;;;;;15.60;63.30;;;;;;5074140;28;19912;-32
2023/05/24 09:43:46;;;;;;;;;;;15.60;62.90;;;;;;5092425;28;19912;-32
2023/05/24 09:46:15;;;;;;;;;;;15.60;62.70;;;;;;5092277;28;19916;-31
2023/05/24 09:48:53;;;;;;;;;;;15.70;62.90;;;;;;5092344;28;19947;-31
2023/05/24 09:51:20;;;;;;;;;;;15.70;62.70;;;;;;5074122;28;19919;-34
2023/05/24 09:53:47;;;;;;;;;;;15.80;62.60;;;;;;5092262;28;19918;-33
2023/05/24 09:56:13;;;;;;;;;;;15.90;62.50;;;;;;5092109;28;19913;-34
2023/05/24 09:58:39;;;;;;;;;;;15.90;62.30;;;;;;5092339;28;20386;-32
2023/05/24 10:01:06;;;;;;;;;;;16.00;62.30;;;;;;5092109;28;20002;-36
2023/05/24 10:03:31;;;;;;;;;;;16.10;61.70;;;;;;5092072;28;19962;-37
2023/05/24 10:05:57;;;;;;;;;;;16.10;61.80;;;;;;5092045;28;20395;-33
2023/05/24 10:08:23;;;;;;;;;;;16.10;61.80;;;;;;5073842;28;19951;-35
2023/05/24 10:10:48;;;;;;;;;;;16.20;61.80;;;;;;5091962;28;19923;-31
2023/05/24 10:13:15;;;;;;;;;;;16.20;60.70;;;;;;5092079;28;19912;-35
2023/05/24 10:15:41;;;;;;;;;;;16.20;60.70;;;;;;5092005;28;19961;-34
2023/05/24 10:18:07;;;;;;;;;;;16.10;60.00;;;;;;5095926;28;19916;-34
2023/05/24 10:20:34;;;;;;;;;;;16.00;60.00;;;;;;5096199;28;19912;-35
2023/05/24 10:23:00;;;;;;;;;;;15.90;59.40;;;;;;5095898;28;19920;-35
2023/05/24 10:25:27;;;;;;;;;;;15.80;60.30;;;;;;5095986;28;19923;-34
2023/05/24 10:28:13;;;;;;;;;;;15.90;59.70;;;;;;5095969;28;19955;-38
2023/05/24 10:30:39;;;;;;;;;;;15.90;60.20;;;;;;5095108;28;19912;-35
2023/05/24 10:33:06;;;;;;;;;;;15.90;60.50;;;;;;5095821;28;19912;-34
2023/05/24 10:35:32;;;;;;;;;;;16.00;60.10;;;;;;5095841;28;20390;-35
2023/05/24 10:37:58;;;;;;;;;;;16.10;59.90;;;;;;5096504;28;20351;-30
2023/05/24 10:40:24;;;;;;;;;;;16.10;59.60;;;;;;5095837;28;19995;-34
2023/05/24 10:42:50;;;;;;;;;;;16.20;59.60;;;;;;5095747;28;19912;-40
2023/05/24 10:45:22;;;;;;;;;;;16.30;59.10;;;;;;5095582;28;19923;-32
2023/05/24 10:47:47;;;;;;;;;;;16.30;59.20;;;;;;5095684;28;20330;-33
2023/05/24 10:50:20;;;;;;;;;;;16.40;59.10;;;;;;5095612;28;19919;-32
2023/05/24 10:52:47;;;;;;;;;;;16.60;59.20;;;;;;5095357;28;19915;-32
2023/05/24 10:55:13;;;;;;;;;;;16.70;59.00;;;;;;5095507;28;20280;-36
2023/05/24 10:57:38;;;;;;;;;;;16.90;57.70;;;;;;5095399;28;19933;-33
2023/05/24 11:00:19;;;;;;;;;;;17.00;57.90;;;;;;5095683;28;20284;-31
2023/05/24 11:02:48;;;;;;;;;;;17.10;58.10;;;;;;5095373;28;19958;-31
2023/05/24 11:05:14;;;;;;;;;;;17.30;57.60;;;;;;5095206;28;19916;-33
2023/05/24 11:07:40;;;;;;;;;;;17.40;57.20;;;;;;5095299;28;20413;-36
2023/05/24 11:10:08;;;;;;;;;;;17.50;57.20;;;;;;5095208;28;19995;-31
2023/05/24 11:12:37;;;;;;;;;;;17.50;57.00;;;;;;5095418;28;19990;-31
2023/05/24 11:15:07;;;;;;;;;;;17.60;57.10;;;;;;5095196;28;20288;-35
2023/05/24 11:17:52;;;;;;;;;;;17.70;57.00;;;;;;5095059;28;20376;-34
2023/05/24 11:20:19;;;;;;;;;;;17.80;56.90;;;;;;5094705;28;19912;-32
2023/05/24 11:22:44;;;;;;;;;;;17.70;55.80;;;;;;5094781;28;20010;-39
2023/05/24 11:25:11;;;;;;;;;;;17.70;56.00;;;;;;5094761;28;20361;-34
2023/05/24 11:27:41;;;;;;;;;;;17.60;56.50;;;;;;5094535;28;19913;-30
2023/05/24 11:30:07;;;;;;;;;;;17.50;56.80;;;;;;5094852;28;19916;-32
2023/05/24 11:32:33;;;;;;;;;;;17.50;56.90;;;;;;5094782;28;19912;-30
2023/05/24 11:34:58;;;;;;;;;;;17.60;56.20;;;;;;5076359;28;19912;-31
2023/05/24 11:37:24;;;;;;;;;;;17.60;56.80;;;;;;5094618;28;19916;-35
2023/05/24 11:39:53;;;;;;;;;;;17.80;56.50;;;;;;5094676;28;20358;-32
2023/05/24 11:42:20;;;;;;;;;;;17.90;56.70;;;;;;5076239;28;20379;-30
2023/05/24 11:44:47;;;;;;;;;;;18.00;56.80;;;;;;5094476;28;19962;-34
2023/05/24 11:47:12;;;;;;;;;;;18.00;56.60;;;;;;5094372;28;20364;-32
2023/05/24 11:49:38;;;;;;;;;;;18.00;56.20;;;;;;5094556;28;19999;-32
2023/05/24 11:52:03;;;;;;;;;;;18.00;55.90;;;;;;5076232;28;20287;-37
2023/05/24 11:54:31;;;;;;;;;;;18.00;55.90;;;;;;5076189;28;19919;-30
2023/05/24 11:56:56;;;;;;;;;;;18.00;56.20;;;;;;5094735;28;19993;-37
2023/05/24 11:59:24;;;;;;;;;;;18.00;56.40;;;;;;5094091;28;20275;-36
2023/05/24 12:01:55;;;;;;;;;;;18.10;55.90;;;;;;5094211;28;19919;-32
2023/05/24 12:04:20;;;;;;;;;;;18.10;55.60;;;;;;5094081;28;20003;-33
2023/05/24 12:06:46;;;;;;;;;;;18.00;54.90;;;;;;5094039;28;20065;-33
2023/05/24 12:09:12;;;;;;;;;;;17.90;55.30;;;;;;5075611;28;19912;-32
2023/05/24 12:11:39;;;;;;;;;;;17.80;55.80;;;;;;5094166;28;20252;-30
2023/05/24 12:14:06;;;;;;;;;;;17.80;55.40;;;;;;5093889;28;20002;-29
2023/05/24 12:16:32;;;;;;;;;;;17.90;55.60;;;;;;5094138;28;19919;-36
2023/05/24 12:18:57;;;;;;;;;;;18.00;56.00;;;;;;5093953;28;19912;-29
2023/05/24 12:21:23;;;;;;;;;;;18.10;55.60;;;;;;5093855;28;19912;-31
2023/05/24 12:23:49;;;;;;;;;;;18.00;55.10;;;;;;5093598;28;19965;-30
2023/05/24 12:26:17;;;;;;;;;;;18.10;55.60;;;;;;5094038;28;19923;-39
2023/05/24 12:28:42;;;;;;;;;;;18.10;55.30;;;;;;5093691;28;20002;-33
2023/05/24 12:31:08;;;;;;;;;;;18.10;54.90;;;;;;5093588;28;20379;-35
2023/05/24 12:33:34;;;;;;;;;;;18.00;55.30;;;;;;5075311;28;19912;-39
2023/05/24 12:36:00;;;;;;;;;;;18.00;55.70;;;;;;5093542;28;19912;-32
2023/05/24 12:38:25;;;;;;;;;;;18.10;55.80;;;;;;5093394;28;19912;-36
2023/05/24 12:40:52;;;;;;;;;;;18.20;55.60;;;;;;5092689;28;20384;-38
2023/05/24 12:43:18;;;;;;;;;;;18.40;54.90;;;;;;5093450;28;19912;-34
2023/05/24 12:45:43;;;;;;;;;;;18.60;55.20;;;;;;5093193;28;19923;-36
2023/05/24 12:48:09;;;;;;;;;;;18.60;54.10;;;;;;5093339;28;19919;-33
2023/05/24 12:50:34;;;;;;;;;;;18.60;53.00;;;;;;5093193;28;19969;-38
2023/05/24 12:53:00;;;;;;;;;;;18.40;53.80;;;;;;5093136;28;19920;-37
2023/05/24 12:55:26;;;;;;;;;;;18.20;54.30;;;;;;5074748;28;20252;-31
2023/05/24 12:57:55;;;;;;;;;;;18.00;54.40;;;;;;5093131;28;20291;-31
2023/05/24 13:00:28;;;;;;;;;;;18.00;54.90;;;;;;5092974;28;19912;-33
2023/05/24 13:02:57;;;;;;;;;;;18.10;55.10;;;;;;5092956;28;20364;-35
2023/05/24 13:05:23;;;;;;;;;;;18.40;55.30;;;;;;5092879;28;20011;-32
2023/05/24 13:07:49;;;;;;;;;;;18.70;54.70;;;;;;5074532;28;19947;-35
2023/05/24 13:10:15;;;;;;;;;;;18.90;53.20;;;;;;5092749;28;19912;-32
2023/05/24 13:12:40;;;;;;;;;;;18.90;52.50;;;;;;5092785;28;19916;-34
2023/05/24 13:15:07;;;;;;;;;;;18.70;53.20;;;;;;5092718;28;19916;-31
2023/05/24 13:17:33;;;;;;;;;;;18.60;53.80;;;;;;5092726;28;19912;-34
2023/05/24 13:20:03;;;;;;;;;;;18.50;54.20;;;;;;5092698;28;20015;-29
2023/05/24 13:22:28;;;;;;;;;;;18.50;54.00;;;;;;5092564;28;20353;-31
2023/05/24 13:24:54;;;;;;;;;;;18.50;54.30;;;;;;5092368;28;20286;-33
2023/05/24 13:27:20;;;;;;;;;;;18.60;54.20;;;;;;5092664;28;20365;-31
2023/05/24 13:29:48;;;;;;;;;;;18.60;53.60;;;;;;5091992;28;20400;-35
2023/05/24 13:32:13;;;;;;;;;;;18.60;54.10;;;;;;5092537;28;20432;-35
2023/05/24 13:34:40;;;;;;;;;;;18.60;53.70;;;;;;5092505;28;19912;-31
2023/05/24 13:37:06;;;;;;;;;;;18.60;53.60;;;;;;5092322;28;20414;-32
2023/05/24 13:39:32;;;;;;;;;;;18.40;53.10;;;;;;5092583;28;19912;-31
2023/05/24 13:41:59;;;;;;;;;;;18.40;53.30;;;;;;5074335;28;19912;-30
2023/05/24 13:44:25;;;;;;;;;;;18.20;53.60;;;;;;5092611;28;19919;-36
2023/05/24 13:46:51;;;;;;;;;;;18.20;53.70;;;;;;5092167;28;19920;-33
2023/05/24 13:49:16;;;;;;;;;;;18.10;54.10;;;;;;5092026;28;19965;-35
2023/05/24 13:51:42;;;;;;;;;;;18.10;53.90;;;;;;5073775;28;20010;-34
2023/05/24 13:54:07;;;;;;;;;;;18.00;53.90;;;;;;5092017;28;20400;-35
2023/05/24 13:56:33;;;;;;;;;;;18.00;53.40;;;;;;5092153;28;19912;-37
2023/05/24 13:58:59;;;;;;;;;;;18.10;53.30;;;;;;5092182;28;19912;-33
2023/05/24 14:01:25;;;;;;;;;;;18.00;53.40;;;;;;5092292;28;19912;-35
2023/05/24 14:03:51;;;;;;;;;;;18.00;53.80;;;;;;5092085;28;19923;-35
2023/05/24 14:06:16;;;;;;;;;;;17.90;54.00;;;;;;5091834;28;19916;-30
2023/05/24 14:08:42;;;;;;;;;;;17.80;54.00;;;;;;5092086;28;19953;-31
2023/05/24 14:11:07;;;;;;;;;;;17.70;54.10;;;;;;5091788;28;19918;-33
2023/05/24 14:13:33;;;;;;;;;;;17.50;54.50;;;;;;5091782;28;19918;-29
2023/05/24 14:15:58;;;;;;;;;;;17.40;54.70;;;;;;5091927;28;19912;-32